createdAt,value
2018-06-07T00:02:10.838Z,101541.45
2018-06-07T00:05:15.091Z,101547.11
2018-06-07T00:08:19.502Z,101539.23
2018-06-07T00:11:23.817Z,101540.50
2018-06-07T00:14:28.105Z,101541.76
2018-06-07T00:17:32.441Z,101536.02
2018-06-07T00:20:36.719Z,101529.80
2018-06-07T00:23:41.111Z,101531.48
2018-06-07T00:26:45.423Z,101532.34
2018-06-07T00:29:49.718Z,101532.75
2018-06-07T00:32:54.030Z,101530.97
2018-06-07T00:35:58.310Z,101528.81
2018-06-07T00:39:02.681Z,101527.07
2018-06-07T00:42:06.954Z,101527.94
2018-06-07T00:45:11.340Z,101524.94
2018-06-07T00:48:15.640Z,101521.45
2018-06-07T00:51:19.948Z,101524.88
2018-06-07T00:54:24.273Z,101520.47
2018-06-07T00:57:28.414Z,101523.06
2018-06-07T01:00:32.838Z,101513.46
2018-06-07T01:03:37.128Z,101513.90
2018-06-07T01:06:41.443Z,101514.80
2018-06-07T01:09:45.748Z,101512.17
2018-06-07T01:12:50.019Z,101510.86
2018-06-07T01:15:54.260Z,101516.11
2018-06-07T01:18:58.607Z,101518.27
2018-06-07T01:22:02.944Z,101517.39
2018-06-07T01:25:07.272Z,101523.06
2018-06-07T01:28:11.539Z,101522.66
2018-06-07T01:31:21.041Z,101523.94
2018-06-07T01:34:25.286Z,101521.34
2018-06-07T01:37:29.636Z,101520.47
2018-06-07T01:40:33.892Z,101523.06
2018-06-07T01:43:38.171Z,101527.41
2018-06-07T01:46:42.494Z,101525.66
2018-06-07T01:49:46.829Z,101519.11
2018-06-07T01:52:51.245Z,101524.32
2018-06-07T01:55:55.568Z,101524.30
2018-06-07T01:58:59.889Z,101526.48
2018-06-07T02:02:04.217Z,101529.56
2018-06-07T02:05:09.440Z,101525.61
2018-06-07T02:08:13.869Z,101527.33
2018-06-07T02:11:18.186Z,101522.91
2018-06-07T02:14:22.497Z,101522.09
2018-06-07T02:17:26.820Z,101513.77
2018-06-07T02:20:31.144Z,101515.48
2018-06-07T02:23:35.411Z,101517.23
2018-06-07T02:26:39.800Z,101515.92
2018-06-07T02:29:44.107Z,101513.25
2018-06-07T02:32:48.416Z,101513.68
2018-06-07T02:35:52.670Z,101514.09
2018-06-07T02:38:56.957Z,101509.67
2018-06-07T02:42:01.193Z,101508.77
2018-06-07T02:45:05.333Z,101511.86
2018-06-07T02:48:09.645Z,101517.53
2018-06-07T02:51:13.922Z,101517.55
2018-06-07T02:54:18.239Z,101520.17
2018-06-07T02:57:22.569Z,101518.40
2018-06-07T03:00:26.676Z,101512.23
2018-06-07T03:03:30.916Z,101517.41
2018-06-07T03:06:35.315Z,101527.88
2018-06-07T03:09:39.628Z,101528.28
2018-06-07T03:12:43.954Z,101532.62
2018-06-07T03:15:48.273Z,101531.08
2018-06-07T03:18:52.607Z,101527.92
2018-06-07T03:21:56.628Z,101530.81
2018-06-07T03:25:01.030Z,101540.97
2018-06-07T03:28:05.344Z,101540.23
2018-06-07T03:31:09.706Z,101537.73
2018-06-07T03:34:13.959Z,101540.98
2018-06-07T03:37:18.215Z,101538.49
2018-06-07T03:40:22.515Z,101550.03
2018-06-07T03:43:26.824Z,101550.55
2018-06-07T03:46:31.164Z,101551.50
2018-06-07T03:49:35.477Z,101548.02
2018-06-07T03:52:39.810Z,101553.73
2018-06-07T03:55:44.120Z,101553.74
2018-06-07T03:58:48.432Z,101554.20
2018-06-07T04:01:52.750Z,101548.06
2018-06-07T04:04:57.069Z,101550.67
2018-06-07T04:08:01.310Z,101558.16
2018-06-07T04:11:05.610Z,101554.59
2018-06-07T04:14:09.924Z,101554.95
2018-06-07T04:17:14.236Z,101562.72
2018-06-07T04:20:18.524Z,101560.78
2018-06-07T04:23:22.880Z,101562.41
2018-06-07T04:26:27.206Z,101566.72
2018-06-07T04:29:31.536Z,101570.62
2018-06-07T04:32:35.808Z,101569.28
2018-06-07T04:35:40.170Z,101569.69
2018-06-07T04:38:44.472Z,101563.55
2018-06-07T04:41:48.804Z,101568.42
2018-06-07T04:44:53.116Z,101568.87
2018-06-07T04:47:57.446Z,101566.30
2018-06-07T04:51:01.754Z,101569.85
2018-06-07T04:54:06.281Z,101568.95
2018-06-07T04:57:10.611Z,101568.13
2018-06-07T05:00:14.912Z,101565.08
2018-06-07T05:03:19.638Z,101568.61
2018-06-07T05:06:23.964Z,101573.44
2018-06-07T05:09:28.217Z,101566.91
2018-06-07T05:12:32.492Z,101563.02
2018-06-07T05:15:36.754Z,101570.09
2018-06-07T05:18:41.009Z,101574.02
2018-06-07T05:21:45.312Z,101571.00
2018-06-07T05:24:49.738Z,101578.48
2018-06-07T05:27:53.757Z,101585.06
2018-06-07T05:30:58.005Z,101582.45
2018-06-07T05:34:02.349Z,101584.22
2018-06-07T05:37:06.645Z,101585.14
2018-06-07T05:40:10.995Z,101589.99
2018-06-07T05:43:15.329Z,101597.03
2018-06-07T05:46:19.697Z,101589.16
2018-06-07T05:49:24.025Z,101588.75
2018-06-07T05:52:28.340Z,101594.44
2018-06-07T05:55:32.629Z,101585.27
2018-06-07T05:58:36.909Z,101588.39
2018-06-07T06:01:41.230Z,101591.02
2018-06-07T06:04:45.535Z,101598.05
2018-06-07T06:07:49.788Z,101593.66
2018-06-07T06:10:54.397Z,101594.98
2018-06-07T06:13:58.696Z,101596.73
2018-06-07T06:17:03.240Z,101604.21
2018-06-07T06:20:09.063Z,101602.87
2018-06-07T06:23:13.376Z,101600.69
2018-06-07T06:26:17.940Z,101604.17
2018-06-07T06:29:22.171Z,101601.08
2018-06-07T06:32:26.455Z,101608.58
2018-06-07T06:35:30.782Z,101605.92
2018-06-07T06:38:36.920Z,101603.68
2018-06-07T06:41:41.240Z,101607.16
2018-06-07T06:44:45.500Z,101602.30
2018-06-07T06:47:49.778Z,101589.52
2018-06-07T06:50:54.108Z,101596.48
2018-06-07T06:53:58.421Z,101588.51
2018-06-07T06:57:02.791Z,101584.97
2018-06-07T07:00:07.038Z,101588.44
2018-06-07T07:03:11.388Z,101584.84
2018-06-07T07:06:15.698Z,101588.78
2018-06-07T07:09:20.072Z,101586.93
2018-06-07T07:12:24.324Z,101581.59
2018-06-07T07:15:28.696Z,101581.98
2018-06-07T07:18:32.996Z,101583.66
2018-06-07T07:21:37.288Z,101585.32
2018-06-07T07:24:41.715Z,101577.75
2018-06-07T07:27:46.029Z,101576.39
2018-06-07T07:30:50.506Z,101574.16
2018-06-07T07:33:54.888Z,101580.31
2018-06-07T07:36:59.200Z,101578.62
2018-06-07T07:40:03.495Z,101578.61
2018-06-07T07:43:07.838Z,101576.80
2018-06-07T07:46:12.156Z,101575.59
2018-06-07T07:49:16.441Z,101571.67
2018-06-07T07:52:20.826Z,101566.88
2018-06-07T07:55:25.117Z,101565.11
2018-06-07T07:58:29.452Z,101571.60
2018-06-07T08:01:33.729Z,101575.14
2018-06-07T08:04:37.993Z,101577.30
2018-06-07T08:07:42.280Z,101575.63
2018-06-07T08:10:46.614Z,101578.27
2018-06-07T08:13:51.004Z,101579.94
2018-06-07T08:16:55.338Z,101578.61
2018-06-07T08:19:59.665Z,101575.48
2018-06-07T08:23:03.999Z,101578.16
2018-06-07T08:26:08.293Z,101579.44
2018-06-07T08:29:12.618Z,101570.70
2018-06-07T08:32:16.935Z,101580.42
2018-06-07T08:35:21.244Z,101580.31
2018-06-07T08:38:25.579Z,101572.80
2018-06-07T08:41:29.852Z,101578.45
2018-06-07T08:44:34.114Z,101569.55
2018-06-07T08:47:38.257Z,101572.23
2018-06-07T08:50:42.531Z,101566.53
2018-06-07T08:53:46.787Z,101570.50
2018-06-07T08:56:51.095Z,101564.47
2018-06-07T08:59:55.747Z,101573.17
2018-06-07T09:03:00.033Z,101568.18
2018-06-07T09:06:04.478Z,101566.32
2018-06-07T09:09:08.786Z,101571.51
2018-06-07T09:12:13.113Z,101570.64
2018-06-07T09:15:17.407Z,101578.44
2018-06-07T09:18:21.721Z,101582.17
2018-06-07T09:21:26.052Z,101577.38
2018-06-07T09:24:30.389Z,101572.09
2018-06-07T09:27:34.416Z,101572.97
2018-06-07T09:30:38.815Z,101566.36
2018-06-07T09:33:43.179Z,101570.60
2018-06-07T09:36:47.538Z,101564.04
2018-06-07T09:39:51.848Z,101564.81
2018-06-07T09:42:56.168Z,101567.41
2018-06-07T09:46:00.510Z,101565.72
2018-06-07T09:49:04.828Z,101564.86
2018-06-07T09:52:09.139Z,101567.91
2018-06-07T09:55:13.927Z,101566.08
2018-06-07T09:58:18.234Z,101565.72
2018-06-07T10:01:22.482Z,101563.91
2018-06-07T10:04:26.818Z,101559.48
2018-06-07T10:07:31.186Z,101559.52
2018-06-07T10:10:35.570Z,101554.75
2018-06-07T10:13:39.848Z,101557.70
2018-06-07T10:16:44.203Z,101557.75
2018-06-07T10:19:48.530Z,101559.48
2018-06-07T10:22:52.841Z,101560.84
2018-06-07T10:25:57.163Z,101558.52
2018-06-07T10:29:01.485Z,101554.80
2018-06-07T10:32:05.796Z,101552.78
2018-06-07T10:35:10.117Z,101547.22
2018-06-07T10:38:14.442Z,101552.11
2018-06-07T10:41:18.783Z,101550.84
2018-06-07T10:44:23.166Z,101548.59
2018-06-07T10:47:27.495Z,101550.33
2018-06-07T10:50:31.837Z,101541.95
2018-06-07T10:53:36.123Z,101535.48
2018-06-07T10:56:40.447Z,101540.07
2018-06-07T10:59:44.790Z,101535.07
2018-06-07T11:02:49.183Z,101541.48
2018-06-07T11:05:53.555Z,101543.67
2018-06-07T11:08:57.841Z,101541.89
2018-06-07T11:12:02.157Z,101544.89
2018-06-07T11:15:06.465Z,101528.89
2018-06-07T11:18:10.733Z,101532.04
2018-06-07T11:21:14.984Z,101534.86
2018-06-07T11:24:19.237Z,101537.17
2018-06-07T11:27:23.580Z,101535.27
2018-06-07T11:30:27.875Z,101526.95
2018-06-07T11:33:32.212Z,101528.07
2018-06-07T11:36:36.492Z,101534.98
2018-06-07T11:39:40.807Z,101527.84
2018-06-07T11:42:45.256Z,101516.67
2018-06-07T11:45:49.549Z,101518.34
2018-06-07T11:48:53.907Z,101517.14
2018-06-07T11:51:58.219Z,101515.82
2018-06-07T11:55:02.534Z,101516.81
2018-06-07T11:58:06.863Z,101509.83
2018-06-07T12:01:11.260Z,101517.08
2018-06-07T12:04:15.579Z,101508.28
2018-06-07T12:07:19.885Z,101501.34
2018-06-07T12:10:24.212Z,101505.02
2018-06-07T12:13:28.483Z,101499.55
2018-06-07T12:16:32.745Z,101495.97
2018-06-07T12:19:37.073Z,101495.91
2018-06-07T12:22:41.384Z,101490.01
2018-06-07T12:25:45.734Z,101493.38
2018-06-07T12:28:50.126Z,101489.30
2018-06-07T12:31:54.450Z,101479.92
2018-06-07T12:34:58.707Z,101483.02
2018-06-07T12:38:02.986Z,101481.36
2018-06-07T12:41:07.291Z,101481.69
2018-06-07T12:44:11.755Z,101479.56
2018-06-07T12:47:16.077Z,101480.07
2018-06-07T12:50:20.332Z,101479.68
2018-06-07T12:53:24.608Z,101467.01
2018-06-07T12:56:28.862Z,101466.77
2018-06-07T12:59:33.242Z,101458.67
2018-06-07T13:02:37.581Z,101461.17
2018-06-07T13:05:41.891Z,101458.47
2018-06-07T13:08:46.155Z,101467.18
2018-06-07T13:11:50.421Z,101460.80
2018-06-07T13:14:54.730Z,101459.34
2018-06-07T13:17:59.061Z,101465.76
2018-06-07T13:21:03.329Z,101467.80
2018-06-07T13:24:07.662Z,101466.81
2018-06-07T13:27:11.823Z,101463.38
2018-06-07T13:30:16.082Z,101460.66
2018-06-07T13:33:20.427Z,101460.33
2018-06-07T13:36:24.712Z,101468.51
2018-06-07T13:39:28.952Z,101457.30
2018-06-07T13:42:33.246Z,101458.93
2018-06-07T13:45:37.597Z,101456.64
2018-06-07T13:48:41.947Z,101454.79
2018-06-07T13:51:46.349Z,101458.47
2018-06-07T13:54:50.648Z,101451.05
2018-06-07T13:57:55.005Z,101447.55
2018-06-07T14:00:59.296Z,101451.92
2018-06-07T14:04:03.630Z,101443.11
2018-06-07T14:07:08.110Z,101441.73
2018-06-07T14:10:12.389Z,101443.52
2018-06-07T14:13:16.689Z,101440.75
2018-06-07T14:16:21.116Z,101443.84
2018-06-07T14:19:25.426Z,101441.34
2018-06-07T14:22:29.746Z,101441.60
2018-06-07T14:25:34.049Z,101440.16
2018-06-07T14:28:38.369Z,101438.36
2018-06-07T14:31:42.680Z,101443.27
2018-06-07T14:34:47.142Z,101444.06
2018-06-07T14:37:51.440Z,101435.20
2018-06-07T14:40:55.744Z,101437.13
2018-06-07T14:44:00.075Z,101439.43
2018-06-07T14:47:04.504Z,101437.44
2018-06-07T14:50:08.858Z,101427.88
2018-06-07T14:53:13.252Z,101423.42
2018-06-07T14:56:17.655Z,101416.42
2018-06-07T14:59:21.990Z,101413.14
2018-06-07T15:02:26.233Z,101413.22
2018-06-07T15:05:30.525Z,101406.22
2018-06-07T15:08:34.844Z,101414.41
2018-06-07T15:11:39.162Z,101405.91
2018-06-07T15:14:43.428Z,101410.16
2018-06-07T15:17:47.787Z,101405.63
2018-06-07T15:20:52.139Z,101399.41
2018-06-07T15:23:56.416Z,101395.91
2018-06-07T15:27:00.765Z,101388.99
2018-06-07T15:30:05.176Z,101384.34
2018-06-07T15:33:09.505Z,101381.14
2018-06-07T15:36:14.045Z,101375.28
2018-06-07T15:39:19.241Z,101365.39
2018-06-07T15:42:23.492Z,101364.84
2018-06-07T15:45:29.128Z,101367.73
2018-06-07T15:48:33.424Z,101365.80
2018-06-07T15:51:37.758Z,101362.06
2018-06-07T15:54:42.069Z,101355.75
2018-06-07T15:57:46.373Z,101354.17
2018-06-07T16:00:51.780Z,101356.41
2018-06-07T16:03:56.108Z,101359.86
2018-06-07T16:07:00.434Z,101357.52
2018-06-07T16:10:04.825Z,101357.98
2018-06-07T16:13:09.149Z,101356.75
2018-06-07T16:16:13.440Z,101353.88
2018-06-07T16:19:17.765Z,101353.06
2018-06-07T16:22:22.105Z,101353.14
2018-06-07T16:25:26.404Z,101347.38
2018-06-07T16:28:30.711Z,101351.03
2018-06-07T16:31:35.029Z,101343.33
2018-06-07T16:34:39.356Z,101347.30
2018-06-07T16:37:43.645Z,101344.76
2018-06-07T16:40:47.984Z,101343.62
2018-06-07T16:43:52.439Z,101334.41
2018-06-07T16:46:56.738Z,101334.02
2018-06-07T16:50:01.189Z,101327.55
2018-06-07T16:53:05.465Z,101331.48
2018-06-07T16:56:09.733Z,101325.81
2018-06-07T16:59:14.028Z,101329.66
2018-06-07T17:02:18.397Z,101328.47
2018-06-07T17:05:22.780Z,101320.62
2018-06-07T17:08:27.026Z,101321.93
2018-06-07T17:11:31.434Z,101324.93
2018-06-07T17:14:35.829Z,101321.43
2018-06-07T17:17:40.238Z,101322.61
2018-06-07T17:20:44.480Z,101318.84
2018-06-07T17:23:48.884Z,101312.68
2018-06-07T17:26:53.154Z,101323.03
2018-06-07T17:29:57.507Z,101324.29
2018-06-07T17:33:01.848Z,101325.23
2018-06-07T17:36:06.210Z,101325.71
2018-06-07T17:39:10.602Z,101326.84
2018-06-07T17:42:15.005Z,101325.68
2018-06-07T17:45:19.309Z,101324.19
2018-06-07T17:48:23.722Z,101329.25
2018-06-07T17:51:28.181Z,101336.41
2018-06-07T17:54:32.584Z,101336.47
2018-06-07T17:57:36.869Z,101341.84
2018-06-07T18:00:41.135Z,101341.27
2018-06-07T18:03:45.453Z,101344.89
2018-06-07T18:06:49.886Z,101344.97
2018-06-07T18:09:54.197Z,101338.81
2018-06-07T18:12:58.557Z,101341.10
2018-06-07T18:16:02.931Z,101342.47
2018-06-07T18:19:07.229Z,101345.27
2018-06-07T18:22:11.578Z,101344.91
2018-06-07T18:25:15.989Z,101349.34
2018-06-07T18:28:20.487Z,101350.33
2018-06-07T18:31:24.912Z,101356.64
2018-06-07T18:34:29.249Z,101351.20
2018-06-07T18:37:33.563Z,101355.04
2018-06-07T18:40:37.883Z,101351.53
2018-06-07T18:43:42.207Z,101354.97
2018-06-07T18:46:46.533Z,101352.86
2018-06-07T18:49:50.981Z,101353.36
2018-06-07T18:52:55.377Z,101351.69
2018-06-07T18:55:59.862Z,101354.88
2018-06-07T18:59:04.543Z,101349.33
2018-06-07T19:02:08.818Z,101348.55
2018-06-07T19:05:13.172Z,101347.24
2018-06-07T19:08:17.594Z,101348.92
2018-06-07T19:11:21.974Z,101348.52
2018-06-07T19:14:31.530Z,101345.92
2018-06-07T19:17:35.992Z,101346.05
2018-06-07T19:20:45.520Z,101355.52
2018-06-07T19:23:49.816Z,101346.42
2018-06-07T19:26:59.318Z,101350.52
2018-06-07T19:30:03.887Z,101350.61
2018-06-07T19:33:13.572Z,101351.19
2018-06-07T19:36:17.869Z,101345.13
2018-06-07T19:39:27.402Z,101350.42
2018-06-07T19:42:31.742Z,101354.40
2018-06-07T19:45:36.024Z,101353.14
2018-06-07T19:48:40.352Z,101354.48
2018-06-07T19:51:44.659Z,101347.00
2018-06-07T19:54:49.000Z,101350.55
2018-06-07T19:57:54.049Z,101349.31
2018-06-07T20:00:58.982Z,101356.81
2018-06-07T20:04:03.803Z,101364.75
2018-06-07T20:07:08.310Z,101360.88
2018-06-07T20:10:12.736Z,101362.24
2018-06-07T20:13:17.033Z,101363.61
2018-06-07T20:16:21.360Z,101362.73
2018-06-07T20:19:25.691Z,101355.70
2018-06-07T20:22:30.117Z,101354.41
2018-06-07T20:25:34.438Z,101358.34
2018-06-07T20:28:38.758Z,101361.43
2018-06-07T20:31:43.078Z,101354.88
2018-06-07T20:34:47.592Z,101357.92
2018-06-07T20:37:52.236Z,101355.31
2018-06-07T20:40:56.544Z,101351.83
2018-06-07T20:44:00.660Z,101352.68
2018-06-07T20:47:05.153Z,101360.55
2018-06-07T20:50:09.605Z,101357.94
2018-06-07T20:53:13.908Z,101349.64
2018-06-07T20:56:18.258Z,101359.23
2018-06-07T20:59:22.516Z,101355.30
2018-06-07T21:02:26.922Z,101347.41
2018-06-07T21:05:31.282Z,101351.30
2018-06-07T21:08:35.619Z,101346.44
2018-06-07T21:11:40.024Z,101349.02
2018-06-07T21:14:44.473Z,101350.75
2018-06-07T21:17:48.778Z,101347.25
2018-06-07T21:20:53.087Z,101346.83
2018-06-07T21:23:57.400Z,101347.25
2018-06-07T21:27:02.190Z,101350.75
2018-06-07T21:30:06.920Z,101349.88
2018-06-07T21:33:11.225Z,101345.45
2018-06-07T21:36:15.763Z,101344.54
2018-06-07T21:39:20.026Z,101342.76
2018-06-07T21:42:24.669Z,101344.08
2018-06-07T21:45:28.964Z,101347.97
2018-06-07T21:48:33.265Z,101340.11
2018-06-07T21:51:37.614Z,101344.91
2018-06-07T21:54:41.923Z,101345.76
2018-06-07T21:57:46.206Z,101343.55
2018-06-07T22:00:50.597Z,101339.55
2018-06-07T22:03:54.887Z,101341.73
2018-06-07T22:06:59.206Z,101342.59
2018-06-07T22:10:03.555Z,101346.50
2018-06-07T22:13:07.964Z,101338.61
2018-06-07T22:16:12.265Z,101338.59
2018-06-07T22:19:16.581Z,101342.04
2018-06-07T22:22:20.903Z,101342.88
2018-06-07T22:25:25.237Z,101336.75
2018-06-07T22:28:29.384Z,101338.00
2018-06-07T22:31:33.754Z,101337.52
2018-06-07T22:34:38.090Z,101336.19
2018-06-07T22:37:42.432Z,101336.13
2018-06-07T22:40:46.723Z,101333.88
2018-06-07T22:43:51.053Z,101335.56
2018-06-07T22:46:55.379Z,101335.06
2018-06-07T22:49:59.672Z,101329.82
2018-06-07T22:53:04.031Z,101321.97
2018-06-07T22:56:08.317Z,101323.26
2018-06-07T22:59:12.628Z,101340.27
2018-06-07T23:02:16.957Z,101335.45
2018-06-07T23:05:21.294Z,101337.61
2018-06-07T23:08:25.547Z,101338.41
2018-06-07T23:11:29.930Z,101341.84
2018-06-07T23:14:34.044Z,101344.48
2018-06-07T23:17:38.340Z,101337.53
2018-06-07T23:20:42.660Z,101331.79
2018-06-07T23:23:47.011Z,101330.44
2018-06-07T23:26:51.275Z,101335.26
2018-06-07T23:29:55.518Z,101323.95
2018-06-07T23:32:59.833Z,101326.02
2018-06-07T23:36:04.195Z,101322.87
2018-06-07T23:39:09.889Z,101324.55
2018-06-07T23:42:14.274Z,101319.30
2018-06-07T23:45:18.626Z,101316.23
2018-06-07T23:48:23.084Z,101316.20
2018-06-07T23:51:27.390Z,101316.69
2018-06-07T23:54:31.665Z,101311.41
2018-06-07T23:57:38.028Z,101306.48
